Time;durP1;ratioP1;P1;durP2;ratioP2;P2;SDS_P1;SDS_P2;PMS_P1;PMS_P2;Temp;Humidity;BMP_temperature;BMP_pressure;BME280_temperature;BME280_humidity;BME280_pressure;Samples;Min_cycle;Max_cycle;Signal;HPM_P1;HPM_P2
2023/01/22 00:02:23;;;;;;;7.60;6.80;;;;;;;1.24;97.60;101717.19;5093153;28;20205;-80
2023/01/22 00:04:49;;;;;;;7.57;6.87;;;;;;;1.24;97.29;101719.78;5094394;28;20197;-79
2023/01/22 00:07:17;;;;;;;8.20;7.37;;;;;;;1.20;97.63;101725.59;5091984;28;20195;-80
2023/01/22 00:09:44;;;;;;;9.23;7.43;;;;;;;1.18;98.13;101725.53;5088216;28;20272;-81
2023/01/22 00:12:10;;;;;;;7.93;7.23;;;;;;;1.18;97.92;101725.53;5090757;28;20223;-81
2023/01/22 00:14:37;;;;;;;8.37;7.43;;;;;;;1.17;98.26;101712.66;5091868;28;20591;-81
2023/01/22 00:17:03;;;;;;;8.13;6.87;;;;;;;1.21;98.15;101718.75;5088174;28;20202;-80
2023/01/22 00:19:29;;;;;;;8.20;7.37;;;;;;;1.16;97.36;101723.72;5099010;28;20678;-81
2023/01/22 00:21:56;;;;;;;7.50;6.83;;;;;;;1.17;97.39;101715.22;5093321;28;20202;-81
2023/01/22 00:24:25;;;;;;;8.80;6.70;;;;;;;1.23;97.35;101722.28;5089734;28;20204;-81
2023/01/22 00:26:51;;;;;;;8.77;6.90;;;;;;;1.22;97.38;101733.41;5092289;28;20223;-82
2023/01/22 00:29:18;;;;;;;6.87;6.27;;;;;;;1.24;96.63;101731.75;5091600;28;20274;-81
2023/01/22 00:31:44;;;;;;;9.33;6.80;;;;;;;1.21;97.54;101727.38;5111205;28;20198;-81
2023/01/22 00:34:10;;;;;;;6.83;6.23;;;;;;;1.22;97.01;101723.09;5121545;28;20256;-82
2023/01/22 00:36:37;;;;;;;7.33;6.47;;;;;;;1.17;97.76;101728.94;5120993;28;20203;-81
2023/01/22 00:39:03;;;;;;;6.67;6.07;;;;;;;1.17;97.77;101721.22;5121222;28;20227;-81
2023/01/22 00:41:31;;;;;;;7.20;6.50;;;;;;;1.16;97.15;101734.88;5122042;28;20204;-82
2023/01/22 00:43:57;;;;;;;6.60;6.00;;;;;;;1.23;97.16;101722.28;5121821;28;20207;-81
2023/01/22 00:46:24;;;;;;;7.17;6.40;;;;;;;1.14;97.54;101718.53;5120938;28;20203;-81
2023/01/22 00:48:50;;;;;;;6.67;6.07;;;;;;;1.16;98.83;101704.03;5120340;28;20303;-80
2023/01/22 00:51:17;;;;;;;7.13;6.50;;;;;;;1.19;97.98;101704.16;5120391;28;20262;-80
2023/01/22 00:53:44;;;;;;;7.43;6.67;;;;;;;1.19;97.72;101705.88;5120648;28;20204;-81
2023/01/22 00:56:11;;;;;;;6.80;6.20;;;;;;;1.17;98.23;101697.22;5120857;28;20204;-81
2023/01/22 00:58:39;;;;;;;8.37;6.23;;;;;;;1.23;98.97;101697.47;5120474;28;20272;-81
2023/01/22 01:01:07;;;;;;;7.23;6.57;;;;;;;1.16;98.34;101698.88;5103035;28;20658;-81
2023/01/22 01:03:36;;;;;;;6.93;6.23;;;;;;;1.18;99.12;101691.25;5108980;28;20210;-81
2023/01/22 01:06:05;;;;;;;7.00;6.40;;;;;;;1.19;98.60;101686.16;5111910;28;20570;-79
2023/01/22 01:08:34;;;;;;;6.90;6.30;;;;;;;1.21;98.54;101687.91;5119825;28;20227;-82
2023/01/22 01:11:02;;;;;;;7.13;6.43;;;;;;;1.19;98.72;101680.16;5119696;28;20228;-82
2023/01/22 01:13:31;;;;;;;6.00;5.50;;;;;;;1.15;99.17;101679.16;5120588;28;20196;-82
2023/01/22 01:16:04;;;;;;;7.63;6.33;;;;;;;1.21;98.56;101680.19;5120946;28;20205;-80
2023/01/22 01:18:32;;;;;;;6.20;5.60;;;;;;;1.21;99.64;101675.03;5120083;28;20236;-79
2023/01/22 01:20:59;;;;;;;6.60;6.00;;;;;;;1.26;98.67;101679.56;5120255;28;20278;-81
2023/01/22 01:23:28;;;;;;;6.40;5.13;;;;;;;1.27;98.52;101680.44;5120020;28;20858;-79
2023/01/22 01:25:55;;;;;;;5.90;5.33;;;;;;;1.25;98.86;101682.06;5119833;28;20199;-79
2023/01/22 01:28:21;;;;;;;6.00;5.50;;;;;;;1.20;98.14;101692.19;5119548;28;20246;-81
2023/01/22 01:30:48;;;;;;;7.27;6.30;;;;;;;1.17;98.34;101681.78;5120669;28;20260;-80
2023/01/22 01:33:16;;;;;;;6.13;5.63;;;;;;;1.23;98.40;101675.97;5117336;28;20204;-81
2023/01/22 01:35:42;;;;;;;5.57;5.07;;;;;;;1.21;98.08;101680.19;5108683;28;20204;-81
2023/01/22 01:38:09;;;;;;;5.60;5.10;;;;;;;1.23;98.16;101676.88;5118437;28;20228;-81
2023/01/22 01:40:35;;;;;;;6.00;5.50;;;;;;;1.23;98.26;101676.88;5111751;28;20281;-79
2023/01/22 01:43:01;;;;;;;6.27;5.63;;;;;;;1.20;99.14;101671.59;5119370;28;20587;-81
2023/01/22 01:45:30;;;;;;;6.20;5.60;;;;;;;1.24;99.10;101665.75;5119176;28;20689;-80
2023/01/22 01:48:05;;;;;;;5.90;5.33;;;;;;;1.28;99.57;101666.75;5119607;28;20219;-80
2023/01/22 01:50:34;;;;;;;6.67;5.13;;;;;;;1.31;98.37;101672.00;5120409;28;20244;-81
2023/01/22 01:53:02;;;;;;;6.00;5.40;;;;;;;1.28;98.58;101677.06;5119556;28;20573;-80
2023/01/22 01:55:31;;;;;;;5.00;4.60;;;;;;;1.25;98.53;101672.69;5119262;28;20209;-81
2023/01/22 01:58:02;;;;;;;5.37;4.87;;;;;;;1.30;99.05;101671.13;5119699;28;20225;-82
2023/01/22 02:00:33;;;;;;;4.60;4.20;;;;;;;1.25;98.98;101669.19;5119876;28;20256;-82
2023/01/22 02:03:00;;;;;;;4.93;4.53;;;;;;;1.22;98.88;101669.09;5122250;28;20346;-82
2023/01/22 02:05:30;;;;;;;4.93;4.53;;;;;;;1.27;99.24;101672.72;5123679;28;20672;-82
2023/01/22 02:07:59;;;;;;;5.23;4.47;;;;;;;1.30;98.90;101678.84;5120667;28;20227;-80
2023/01/22 02:10:25;;;;;;;4.83;4.33;;;;;;;1.31;98.84;101669.44;5114023;28;20650;-81
2023/01/22 02:12:55;;;;;;;5.13;4.07;;;;;;;1.26;98.92;101668.41;5107806;28;20200;-80
2023/01/22 02:15:21;;;;;;;4.67;4.27;;;;;;;1.25;99.30;101661.47;5112942;28;20335;-82
2023/01/22 02:17:48;;;;;;;6.90;4.87;;;;;;;1.27;99.92;101653.03;5121709;28;20227;-82
2023/01/22 02:20:15;;;;;;;4.97;4.47;;;;;;;1.28;99.18;101659.91;5121655;28;20227;-79
2023/01/22 02:22:42;;;;;;;6.27;4.73;;;;;;;1.29;99.65;101659.13;5121290;28;20204;-82
2023/01/22 02:25:09;;;;;;;5.13;4.57;;;;;;;1.33;98.66;101662.69;5121693;28;20630;-80
2023/01/22 02:27:37;;;;;;;4.07;3.77;;;;;;;1.33;98.65;101673.84;5121067;28;20664;-80
2023/01/22 02:30:04;;;;;;;3.73;3.43;;;;;;;1.34;99.27;101670.44;5120710;28;20206;-80
2023/01/22 02:32:31;;;;;;;4.17;3.80;;;;;;;1.34;99.29;101670.44;5121076;28;20727;-81
2023/01/22 02:34:57;;;;;;;3.63;3.33;;;;;;;1.28;99.28;101675.34;5120700;28;20282;-81
2023/01/22 02:37:23;;;;;;;3.90;3.60;;;;;;;1.26;99.57;101665.81;5120908;28;20207;-80
2023/01/22 02:39:51;;;;;;;4.63;4.23;;;;;;;1.26;99.92;101663.25;5120571;28;20253;-81
2023/01/22 02:42:18;;;;;;;3.87;3.57;;;;;;;1.27;99.79;101667.56;5109642;28;20272;-81
2023/01/22 02:44:44;;;;;;;4.03;3.73;;;;;;;1.28;99.87;101659.91;5109352;28;20208;-81
2023/01/22 02:47:10;;;;;;;3.80;3.43;;;;;;;1.32;99.59;101664.34;5120395;28;20252;-78
2023/01/22 02:49:37;;;;;;;4.80;3.50;;;;;;;1.36;99.61;101655.94;5120798;28;20224;-82
2023/01/22 02:52:03;;;;;;;4.00;3.60;;;;;;;1.37;99.85;101664.56;5120189;28;20233;-81
2023/01/22 02:54:30;;;;;;;4.10;3.70;;;;;;;1.35;99.69;101664.50;5116689;28;20215;-82
2023/01/22 02:56:57;;;;;;;3.80;3.50;;;;;;;1.34;99.04;101670.44;5100015;28;20213;-79
2023/01/22 02:59:24;;;;;;;4.13;3.73;;;;;;;1.33;99.30;101666.13;5099565;28;20251;-82
2023/01/22 03:01:51;;;;;;;4.50;4.10;;;;;;;1.38;98.92;101668.88;5099086;28;20258;-79
2023/01/22 03:04:17;;;;;;;3.40;3.20;;;;;;;1.38;99.22;101653.44;5099824;28;20204;-82
2023/01/22 03:06:45;;;;;;;4.27;3.93;;;;;;;1.35;98.84;101663.63;5099984;28;20229;-80
2023/01/22 03:09:14;;;;;;;3.93;3.53;;;;;;;1.33;99.33;101660.13;5099695;28;20274;-82
2023/01/22 03:11:42;;;;;;;3.80;3.50;;;;;;;1.30;99.16;101668.56;5099396;28;20242;-81
2023/01/22 03:22:22;;;;;;;4.30;3.90;;;;;;;1.24;100.00;101637.47;5078821;28;20331;-82
2023/01/22 03:24:50;;;;;;;4.27;3.97;;;;;;;1.27;99.67;101641.84;5078890;28;20250;-82
2023/01/22 03:27:16;;;;;;;4.57;4.00;;;;;;;1.28;100.00;101641.91;5079000;28;20437;-79
2023/01/22 03:29:44;;;;;;;3.90;3.60;;;;;;;1.29;99.72;101638.53;5079089;28;20311;-80
2023/01/22 03:32:11;;;;;;;4.17;3.87;;;;;;;1.25;100.00;101634.09;5078797;28;20208;-80
2023/01/22 03:34:38;;;;;;;4.13;3.73;;;;;;;1.29;100.00;101637.63;5078805;28;20206;-81
2023/01/22 03:37:04;;;;;;;4.13;3.83;;;;;;;1.35;99.85;101645.63;5078765;28;20205;-79
2023/01/22 03:39:32;;;;;;;4.10;3.50;;;;;;;1.35;99.61;101641.34;5078615;28;20229;-80
2023/01/22 03:41:58;;;;;;;3.93;3.60;;;;;;;1.35;99.96;101649.06;5078310;28;20212;-82
2023/01/22 03:44:25;;;;;;;4.70;4.03;;;;;;;1.32;100.00;101648.91;5102572;28;20205;-81
2023/01/22 03:46:52;;;;;;;3.80;3.40;;;;;;;1.33;99.53;101645.53;5118037;28;20680;-79
2023/01/22 03:49:19;;;;;;;3.87;3.57;;;;;;;1.32;99.22;101648.06;5119086;28;20663;-82
2023/01/22 03:51:45;;;;;;;3.67;3.37;;;;;;;1.25;99.75;101646.06;5118948;28;20200;-82
2023/01/22 03:54:13;;;;;;;4.03;3.60;;;;;;;1.26;100.00;101638.41;5118989;28;20241;-81
2023/01/22 03:56:41;;;;;;;4.67;4.27;;;;;;;1.26;100.00;101638.41;5100507;28;20207;-82
2023/01/22 03:59:08;;;;;;;4.20;3.77;;;;;;;1.29;100.00;101638.53;5112572;28;20223;-80
2023/01/22 04:01:34;;;;;;;4.00;3.70;;;;;;;1.30;100.00;101634.25;5118869;28;20228;-80
2023/01/22 04:04:02;;;;;;;3.93;3.63;;;;;;;1.31;100.00;101636.00;5119093;28;20215;-80
2023/01/22 04:06:30;;;;;;;4.27;3.70;;;;;;;1.28;100.00;101638.47;5118154;28;20219;-79
2023/01/22 04:08:56;;;;;;;4.07;3.77;;;;;;;1.29;100.00;101641.09;5118638;28;20229;-79
2023/01/22 04:11:24;;;;;;;3.83;3.53;;;;;;;1.27;100.00;101640.16;5119413;28;20204;-79
2023/01/22 04:13:50;;;;;;;3.87;3.57;;;;;;;1.31;100.00;101642.03;5119219;28;20207;-80
2023/01/22 04:16:17;;;;;;;3.90;3.60;;;;;;;1.31;100.00;101644.63;5119339;28;20722;-80
2023/01/22 04:18:43;;;;;;;3.83;3.53;;;;;;;1.35;100.00;101643.03;5120818;28;20224;-81
2023/01/22 04:21:11;;;;;;;3.60;3.30;;;;;;;1.36;100.00;101652.50;5119321;28;20231;-80
2023/01/22 04:23:38;;;;;;;4.33;4.07;;;;;;;1.34;100.00;101646.41;5119770;28;20645;-80
2023/01/22 04:26:05;;;;;;;3.17;2.97;;;;;;;1.37;100.00;101643.97;5104669;28;20208;-80
2023/01/22 04:28:31;;;;;;;3.07;2.87;;;;;;;1.39;100.00;101647.47;5112203;28;20220;-81
2023/01/22 04:30:58;;;;;;;3.00;2.70;;;;;;;1.41;100.00;101651.00;5120713;28;20252;-80
2023/01/22 04:33:25;;;;;;;2.40;2.20;;;;;;;1.44;100.00;101655.38;5122284;28;20277;-80
2023/01/22 04:35:52;;;;;;;3.03;2.73;;;;;;;1.45;99.31;101655.44;5121638;28;20210;-81
2023/01/22 04:38:20;;;;;;;2.67;2.47;;;;;;;1.40;100.00;101659.50;5121508;28;20223;-79
2023/01/22 04:40:46;;;;;;;2.83;2.63;;;;;;;1.37;99.96;101659.41;5119969;28;20277;-79
2023/01/22 04:43:13;;;;;;;2.60;2.40;;;;;;;1.39;100.00;101652.63;5120928;28;20237;-81
2023/01/22 04:45:39;;;;;;;2.73;2.53;;;;;;;1.39;100.00;101657.78;5121905;28;20203;-80
2023/01/22 04:48:07;;;;;;;3.07;2.77;;;;;;;1.39;99.44;101658.63;5121414;28;20261;-81
2023/01/22 04:50:34;;;;;;;3.00;2.70;;;;;;;1.39;100.00;101665.50;5121279;28;20217;-79
2023/01/22 04:53:01;;;;;;;2.80;2.60;;;;;;;1.36;100.00;101658.50;5121573;28;20258;-80
2023/01/22 04:55:29;;;;;;;2.80;2.60;;;;;;;1.39;99.71;101660.34;5104956;28;20286;-80
2023/01/22 04:57:57;;;;;;;2.37;2.20;;;;;;;1.41;99.31;101660.38;5101167;28;20224;-80
2023/01/22 05:00:25;;;;;;;2.80;2.37;;;;;;;1.36;99.91;101665.34;5100568;28;20220;-79
2023/01/22 05:02:56;;;;;;;2.47;2.27;;;;;;;1.39;99.82;101663.78;5100637;28;20200;-79
2023/01/22 05:05:23;;;;;;;3.37;3.07;;;;;;;1.44;99.56;101665.66;5096217;28;20299;-82
2023/01/22 05:07:49;;;;;;;2.87;2.67;;;;;;;1.41;100.00;101668.09;5101278;28;20220;-80
2023/01/22 05:10:16;;;;;;;2.77;2.57;;;;;;;1.41;100.00;101671.56;5099488;28;20207;-81
2023/01/22 05:12:44;;;;;;;2.53;2.33;;;;;;;1.46;100.00;101672.59;5106398;28;20211;-80
2023/01/22 05:15:11;;;;;;;3.00;2.80;;;;;;;1.50;99.66;101671.91;5112869;28;20634;-80
2023/01/22 05:17:37;;;;;;;3.10;2.90;;;;;;;1.50;99.96;101676.19;5120157;28;20621;-82
2023/01/22 05:20:04;;;;;;;2.80;2.60;;;;;;;1.50;99.42;101681.31;5111529;28;20200;-81
2023/01/22 05:22:30;;;;;;;2.87;2.67;;;;;;;1.50;99.43;101681.31;5116830;28;20248;-81
2023/01/22 05:24:57;;;;;;;2.87;2.67;;;;;;;1.48;99.68;101686.41;5112073;28;20632;-80
2023/01/22 05:27:23;;;;;;;3.30;3.07;;;;;;;1.47;99.68;101683.78;5110119;28;20195;-80
2023/01/22 05:29:51;;;;;;;2.73;2.53;;;;;;;1.47;99.40;101678.66;5119215;28;20245;-81
2023/01/22 05:32:17;;;;;;;3.23;3.03;;;;;;;1.49;99.67;101684.72;5119484;28;20196;-80
2023/01/22 05:34:44;;;;;;;2.70;2.50;;;;;;;1.46;99.29;101684.59;5119456;28;20203;-80
2023/01/22 05:37:10;;;;;;;3.10;2.90;;;;;;;1.45;99.92;101680.25;5121043;28;20200;-81
2023/01/22 05:39:36;;;;;;;2.80;2.60;;;;;;;1.47;99.51;101689.81;5123774;28;20245;-81
2023/01/22 05:42:03;;;;;;;3.13;2.93;;;;;;;1.49;99.92;101690.75;5122777;28;20273;-82
2023/01/22 05:44:29;;;;;;;2.73;2.53;;;;;;;1.50;99.74;101689.91;5122549;28;20203;-80
2023/01/22 05:46:57;;;;;;;2.93;2.73;;;;;;;1.47;99.27;101691.50;5123366;28;20261;-81
2023/01/22 05:49:23;;;;;;;2.90;2.70;;;;;;;1.48;99.57;101694.13;5121516;28;20274;-82
2023/01/22 05:51:50;;;;;;;2.80;2.60;;;;;;;1.48;99.46;101691.53;5120952;28;20205;-80
2023/01/22 05:54:16;;;;;;;2.80;2.60;;;;;;;1.49;99.25;101701.03;5121424;28;20212;-81
2023/01/22 05:56:42;;;;;;;2.70;2.53;;;;;;;1.50;99.10;101699.34;5111862;28;20204;-82
2023/01/22 05:59:09;;;;;;;3.10;2.90;;;;;;;1.45;99.64;101705.97;5121370;28;20636;-82
2023/01/22 06:01:35;;;;;;;2.60;2.40;;;;;;;1.49;99.22;101705.31;5120618;28;20225;-81
2023/01/22 06:04:03;;;;;;;2.70;2.50;;;;;;;1.46;99.41;101706.03;5120918;28;20208;-80
2023/01/22 06:06:29;;;;;;;2.60;2.40;;;;;;;1.50;99.50;101704.47;5120943;28;20269;-80
2023/01/22 06:08:56;;;;;;;2.90;2.70;;;;;;;1.48;99.31;101704.41;5120021;28;20227;-81
2023/01/22 06:11:22;;;;;;;2.73;2.53;;;;;;;1.53;99.14;101709.75;5119877;28;20586;-83
2023/01/22 06:13:49;;;;;;;3.30;3.00;;;;;;;1.54;99.99;101707.22;5119491;28;20199;-80
2023/01/22 06:16:15;;;;;;;3.10;2.90;;;;;;;1.56;99.09;101717.56;5119383;28;20469;-82
2023/01/22 06:18:41;;;;;;;3.30;3.10;;;;;;;1.54;98.99;101724.34;5119653;28;20281;-81
2023/01/22 06:21:09;;;;;;;3.13;2.87;;;;;;;1.54;98.77;101720.09;5118944;28;20256;-80
2023/01/22 06:23:36;;;;;;;2.03;1.93;;;;;;;1.55;99.10;101731.28;5119507;28;20405;-81
2023/01/22 06:26:04;;;;;;;2.47;2.27;;;;;;;1.56;99.43;101730.44;5113160;27;20209;-81
2023/01/22 06:28:30;;;;;;;2.43;2.33;;;;;;;1.54;99.33;101735.53;5115406;28;20650;-82
2023/01/22 06:31:01;;;;;;;2.37;2.20;;;;;;;1.56;99.09;101733.00;5118413;28;20261;-83
2023/01/22 06:33:27;;;;;;;3.00;2.80;;;;;;;1.55;98.70;101733.84;5118769;28;20203;-81
2023/01/22 06:35:54;;;;;;;3.10;2.90;;;;;;;1.58;99.55;101732.25;5118954;28;20207;-81
2023/01/22 06:38:22;;;;;;;2.93;2.73;;;;;;;1.60;99.01;101742.59;5118824;28;20701;-81
2023/01/22 06:40:51;;;;;;;2.63;2.43;;;;;;;1.62;99.13;101737.53;5118685;28;20258;-81
2023/01/22 06:43:18;;;;;;;2.77;2.57;;;;;;;1.61;98.81;101746.09;5119192;28;20199;-80
2023/01/22 06:45:44;;;;;;;3.00;2.80;;;;;;;1.59;98.96;101746.88;5119288;28;20255;-80
2023/01/22 06:48:10;;;;;;;2.90;2.70;;;;;;;1.57;98.68;101743.38;5119372;28;20277;-80
2023/01/22 06:50:37;;;;;;;2.90;2.70;;;;;;;1.63;99.02;101747.00;5119170;28;20252;-83
2023/01/22 06:53:04;;;;;;;2.93;2.73;;;;;;;1.65;98.63;101748.81;5119007;28;20284;-81
2023/01/22 06:55:31;;;;;;;3.10;2.90;;;;;;;1.63;98.89;101752.16;5117286;28;20211;-82
2023/01/22 06:57:58;;;;;;;3.07;2.87;;;;;;;1.64;98.25;101761.63;5099024;28;20373;-82
2023/01/22 07:00:24;;;;;;;3.10;2.90;;;;;;;1.66;99.03;101763.44;5098384;28;20257;-82
2023/01/22 07:02:50;;;;;;;3.00;2.80;;;;;;;1.63;98.39;101776.19;5099372;28;20246;-82
2023/01/22 07:05:18;;;;;;;3.27;3.07;;;;;;;1.63;98.58;101770.19;5100005;28;20224;-81
2023/01/22 07:07:45;;;;;;;3.33;3.03;;;;;;;1.64;99.08;101779.63;5099006;28;20299;-80
2023/01/22 07:10:12;;;;;;;3.57;3.27;;;;;;;1.67;98.44;101788.38;5099085;28;20205;-82
2023/01/22 07:12:40;;;;;;;5.83;5.33;;;;;;;1.68;98.21;101779.81;5098634;28;20201;-82
2023/01/22 07:15:07;;;;;;;5.10;4.70;;;;;;;1.69;97.68;101791.00;5099206;28;20257;-81
2023/01/22 07:17:35;;;;;;;4.30;3.90;;;;;;;1.69;98.38;101799.59;5099156;28;20262;-82
2023/01/22 07:20:02;;;;;;;3.50;3.30;;;;;;;1.69;97.97;101798.72;5098975;28;20215;-82
2023/01/22 07:22:30;;;;;;;4.20;3.90;;;;;;;1.72;98.21;101801.41;5098856;28;20315;-82
2023/01/22 07:24:56;;;;;;;4.17;3.87;;;;;;;1.67;98.35;101810.66;5102551;28;20234;-82
2023/01/22 07:27:23;;;;;;;3.40;3.17;;;;;;;1.68;98.13;101809.81;5110435;28;20207;-81
2023/01/22 07:29:50;;;;;;;4.30;4.00;;;;;;;1.66;98.54;101806.31;5119077;28;20270;-82
2023/01/22 07:32:17;;;;;;;4.97;4.57;;;;;;;1.68;98.55;101805.53;5119459;28;20200;-82
2023/01/22 07:34:43;;;;;;;4.60;4.20;;;;;;;1.70;97.97;101813.34;5118736;28;20206;-81
2023/01/22 07:37:10;;;;;;;4.63;4.23;;;;;;;1.73;97.72;101810.91;5119148;28;20212;-80
2023/01/22 07:39:36;;;;;;;4.33;4.00;;;;;;;1.73;98.30;101819.50;5119099;28;20219;-81
2023/01/22 07:42:02;;;;;;;5.03;4.63;;;;;;;1.75;97.75;101819.56;5118565;28;20227;-81
2023/01/22 07:44:29;;;;;;;6.50;5.90;;;;;;;1.76;98.10;101817.03;5118901;28;20204;-82
2023/01/22 07:46:56;;;;;;;4.60;4.30;;;;;;;1.78;98.26;101822.22;5118656;28;20272;-81
2023/01/22 07:49:23;;;;;;;5.13;4.73;;;;;;;1.81;97.62;101824.94;5118597;28;20635;-82
2023/01/22 07:51:49;;;;;;;3.80;3.50;;;;;;;1.85;97.56;101833.66;5118344;28;20200;-82
2023/01/22 07:54:16;;;;;;;4.00;3.70;;;;;;;1.82;97.81;101842.13;5118276;28;20213;-81
2023/01/22 07:56:42;;;;;;;4.50;4.10;;;;;;;1.84;97.68;101843.06;5108618;28;20207;-81
2023/01/22 07:59:08;;;;;;;4.07;3.77;;;;;;;1.84;97.45;101845.63;5118320;28;20269;-81
2023/01/22 08:01:35;;;;;;;5.00;4.60;;;;;;;1.85;97.61;101843.97;5117774;28;20227;-82
2023/01/22 08:04:02;;;;;;;5.53;5.03;;;;;;;1.84;98.09;101842.19;5118054;28;20200;-82
2023/01/22 08:06:29;;;;;;;7.33;5.80;;;;;;;1.85;97.74;101849.13;5117658;28;20255;-81
2023/01/22 08:08:57;;;;;;;8.70;7.27;;;;;;;1.87;97.54;101850.94;5118129;28;20241;-82
2023/01/22 08:11:24;;;;;;;9.07;7.47;;;;;;;1.87;96.95;101857.78;5117683;28;20200;-82
2023/01/22 08:13:50;;;;;;;8.53;7.17;;;;;;;1.87;97.54;101856.06;5117593;28;20213;-82
2023/01/22 08:16:17;;;;;;;7.63;6.57;;;;;;;1.84;97.80;101863.66;5118189;28;20208;-81
2023/01/22 08:18:43;;;;;;;5.57;5.07;;;;;;;1.86;97.94;101858.59;5117042;28;20348;-82
2023/01/22 08:21:11;;;;;;;6.43;5.83;;;;;;;1.87;97.76;101845.78;5106532;22;20292;-77
2023/01/22 08:23:37;;;;;;;5.97;5.47;;;;;;;1.89;97.66;101846.72;5052397;28;20212;-77
2023/01/22 08:26:04;;;;;;;4.77;4.37;;;;;;;1.91;97.88;101846.78;5065795;28;20205;-78
2023/01/22 08:28:31;;;;;;;4.80;4.40;;;;;;;1.91;98.10;101857.06;5055512;28;20224;-78
2023/01/22 08:30:58;;;;;;;4.57;4.17;;;;;;;1.95;97.45;101852.09;5052256;28;20207;-77
2023/01/22 08:33:25;;;;;;;4.57;4.17;;;;;;;1.97;97.84;101859.88;5052214;28;20202;-77
2023/01/22 08:35:52;;;;;;;4.43;4.10;;;;;;;1.96;97.41;101861.59;5064446;28;20197;-78
2023/01/22 08:38:20;;;;;;;3.43;3.23;;;;;;;2.02;97.62;101865.22;5074218;28;20278;-77
2023/01/22 08:40:49;;;;;;;3.70;3.40;;;;;;;2.05;97.42;101871.38;5073779;28;20551;-78
2023/01/22 08:43:16;;;;;;;3.80;3.50;;;;;;;2.08;97.27;101863.78;5073681;28;20313;-78
2023/01/22 08:45:42;;;;;;;4.23;3.93;;;;;;;2.12;96.95;101875.03;5057639;28;20670;-78
2023/01/22 08:48:09;;;;;;;4.30;4.00;;;;;;;2.17;96.83;101882.13;5053813;28;21315;-77
2023/01/22 08:50:35;;;;;;;4.60;4.20;;;;;;;2.21;96.32;101893.44;5049498;28;20198;-83
2023/01/22 08:53:02;;;;;;;4.57;4.17;;;;;;;2.25;96.00;101895.31;5052043;28;20206;-81
2023/01/22 08:55:29;;;;;;;4.33;4.00;;;;;;;2.23;96.15;101909.84;5052991;28;20207;-82
2023/01/22 08:57:56;;;;;;;4.37;4.00;;;;;;;2.25;95.92;101910.78;5052449;28;20279;-86
2023/01/22 09:00:24;;;;;;;4.63;4.22;;;;;;;2.29;96.07;101922.94;5052581;28;20385;-79
2023/01/22 09:02:50;;;;;;;3.87;3.60;;;;;;;2.33;95.32;101929.09;5064143;28;20274;-81
2023/01/22 09:05:17;;;;;;;4.20;3.90;;;;;;;2.32;95.42;101935.97;5072640;28;20212;-81
2023/01/22 09:07:43;;;;;;;4.73;4.33;;;;;;;2.35;95.32;101937.78;5073094;28;20212;-80
2023/01/22 09:10:11;;;;;;;3.73;3.43;;;;;;;2.38;94.92;101945.63;5072410;28;20618;-81
2023/01/22 09:12:39;;;;;;;3.87;3.57;;;;;;;2.38;94.74;101950.78;5071404;28;20205;-80
2023/01/22 09:15:07;;;;;;;4.27;3.97;;;;;;;2.35;94.70;101958.38;5073622;28;20262;-81
2023/01/22 09:17:34;;;;;;;4.33;4.03;;;;;;;2.33;94.75;101968.63;5074306;28;20264;-81
2023/01/22 09:20:00;;;;;;;4.50;4.13;;;;;;;2.33;94.15;101978.94;5073526;28;20234;-81
2023/01/22 09:22:26;;;;;;;5.40;5.00;;;;;;;2.26;94.89;101974.38;5074727;28;20226;-83
2023/01/22 09:24:53;;;;;;;4.30;4.00;;;;;;;2.25;94.34;101988.06;5072767;28;20207;-83
2023/01/22 09:27:20;;;;;;;4.53;4.13;;;;;;;2.21;95.02;101993.91;5068234;28;20213;-78
2023/01/22 09:29:47;;;;;;;4.77;4.37;;;;;;;2.21;94.74;101983.59;5056486;28;20722;-78
2023/01/22 09:32:14;;;;;;;4.60;4.20;;;;;;;2.15;94.95;101988.50;5052752;28;20640;-78
2023/01/22 09:34:40;;;;;;;4.33;3.97;;;;;;;2.15;94.98;101975.63;5052402;28;20252;-77
2023/01/22 09:37:10;;;;;;;5.63;4.97;;;;;;;2.12;95.57;101981.56;5052663;28;20202;-77
2023/01/22 09:39:36;;;;;;;5.60;5.20;;;;;;;2.12;95.43;101971.25;5052105;28;20226;-77
2023/01/22 09:42:06;;;;;;;5.00;4.60;;;;;;;2.10;95.40;101969.41;5052406;28;20218;-77
2023/01/22 09:44:36;;;;;;;3.83;3.53;;;;;;;2.05;95.54;101966.66;5052368;28;20337;-78
2023/01/22 09:47:07;;;;;;;4.17;3.87;;;;;;;2.06;96.10;101967.53;5050008;28;20198;-77
2023/01/22 09:49:38;;;;;;;3.73;3.43;;;;;;;2.09;95.90;101955.66;5054066;28;20294;-78
2023/01/22 09:52:05;;;;;;;4.43;4.03;;;;;;;2.10;96.36;101957.44;5052377;28;20259;-78
2023/01/22 09:54:33;;;;;;;5.63;5.13;;;;;;;2.10;96.22;101954.84;5052809;28;20256;-77
2023/01/22 09:57:03;;;;;;;6.63;6.03;;;;;;;2.11;95.95;101955.72;5052780;28;20253;-77
2023/01/22 09:59:35;;;;;;;4.97;4.57;;;;;;;2.04;96.22;101939.13;5061509;28;20230;-78
2023/01/22 10:02:17;;;;;;;5.60;5.10;;;;;;;2.08;96.46;101942.72;5072889;28;20644;-77
2023/01/22 10:04:46;;;;;;;4.57;4.27;;;;;;;2.12;96.50;101935.19;5073521;28;20204;-78
2023/01/22 10:07:16;;;;;;;4.97;4.57;;;;;;;2.12;96.57;101934.28;5073156;28;20205;-78
2023/01/22 10:09:50;;;;;;;4.57;4.20;;;;;;;2.16;96.70;101931.91;5073239;28;20641;-78
2023/01/22 10:12:16;;;;;;;4.27;3.90;;;;;;;2.21;96.17;101934.66;5073044;28;20252;-78
2023/01/22 10:14:43;;;;;;;6.70;6.10;;;;;;;2.20;96.62;101938.06;5073788;28;20211;-78
2023/01/22 10:17:19;;;;;;;9.67;8.77;;;;;;;2.23;95.74;101938.19;5073368;28;20198;-78
2023/01/22 10:19:50;;;;;;;8.03;7.30;;;;;;;2.25;96.13;101951.13;5072777;28;20274;-78
2023/01/22 10:22:22;;;;;;;10.70;9.13;;;;;;;2.28;95.39;101961.53;5072491;28;20736;-78
2023/01/22 10:24:48;;;;;;;8.77;7.97;;;;;;;2.28;95.13;101958.94;5076935;28;20215;-78
2023/01/22 10:27:18;;;;;;;9.07;8.27;;;;;;;2.31;95.71;101964.25;5073456;28;20259;-78
2023/01/22 10:29:55;;;;;;;7.90;6.87;;;;;;;2.31;95.32;101961.66;5067836;28;20279;-78
2023/01/22 10:32:25;;;;;;;9.10;7.13;;;;;;;2.32;95.21;101966.88;5077501;28;20234;-78
2023/01/22 10:35:00;;;;;;;6.90;6.40;;;;;;;2.33;95.20;101968.63;5078025;28;20211;-78
2023/01/22 10:37:26;;;;;;;6.77;6.23;;;;;;;2.33;95.23;101971.19;5077482;28;20209;-78
2023/01/22 10:39:57;;;;;;;6.07;5.57;;;;;;;2.37;95.65;101962.78;5077808;28;20214;-78
2023/01/22 10:42:25;;;;;;;5.77;5.33;;;;;;;2.36;95.45;101978.19;5071207;28;20222;-78
2023/01/22 10:44:55;;;;;;;4.77;4.37;;;;;;;2.36;95.51;101971.34;5057417;28;20682;-78
2023/01/22 10:47:26;;;;;;;4.80;4.40;;;;;;;2.36;94.81;101984.22;5058127;28;20209;-78
2023/01/22 10:50:01;;;;;;;5.43;4.93;;;;;;;2.37;94.90;101985.97;5061385;28;20201;-82
2023/01/22 10:52:34;;;;;;;5.47;5.07;;;;;;;2.36;94.85;101986.81;5060254;28;20206;-81
2023/01/22 10:55:02;;;;;;;5.10;4.70;;;;;;;2.32;95.29;101979.78;5056132;28;20607;-78
2023/01/22 10:57:32;;;;;;;5.60;5.20;;;;;;;2.30;95.46;101986.56;5056600;28;20263;-77
2023/01/22 11:00:06;;;;;;;6.30;5.70;;;;;;;2.28;95.24;101979.56;5070358;28;20197;-77
2023/01/22 11:02:35;;;;;;;6.43;5.83;;;;;;;2.27;95.23;101967.53;5079481;28;20209;-77
2023/01/22 11:05:16;;;;;;;5.67;5.17;;;;;;;2.28;95.42;101967.59;5078614;28;20208;-78
2023/01/22 11:07:44;;;;;;;5.37;4.90;;;;;;;2.27;95.68;101976.13;5075728;28;20200;-77
2023/01/22 11:10:18;;;;;;;5.60;5.10;;;;;;;2.27;95.43;101973.53;5069565;28;20194;-76
2023/01/22 11:12:52;;;;;;;5.50;5.03;;;;;;;2.26;95.92;101964.06;4509359;28;10001917;-77
2023/01/22 11:15:25;;;;;;;5.33;4.90;;;;;;;2.30;95.97;101965.94;5051324;28;20267;-76
2023/01/22 11:17:57;;;;;;;5.20;4.80;;;;;;;2.34;95.51;101972.09;5050622;28;20279;-77
2023/01/22 11:20:28;;;;;;;5.20;4.80;;;;;;;2.31;95.66;101975.41;5049944;28;20206;-77
2023/01/22 11:23:03;;;;;;;4.93;4.60;;;;;;;2.34;95.17;101982.41;5051011;28;20217;-76
2023/01/22 11:25:39;;;;;;;5.50;5.10;;;;;;;2.36;95.50;101981.66;5047374;28;20210;-77
2023/01/22 11:28:16;;;;;;;5.47;5.07;;;;;;;2.39;95.30;101984.31;5054316;28;20252;-77
2023/01/22 11:30:56;;;;;;;5.20;4.80;;;;;;;2.43;95.06;101994.78;5051933;28;20662;-77
2023/01/22 11:33:42;;;;;;;6.50;6.00;;;;;;;2.42;95.44;101985.25;5050941;28;20203;-77
2023/01/22 11:36:16;;;;;;;6.10;5.60;;;;;;;2.44;95.20;101983.63;5047221;28;20540;-77
2023/01/22 11:38:48;;;;;;;6.00;5.50;;;;;;;2.44;95.11;101986.19;5051366;28;20221;-77
2023/01/22 11:41:30;;;;;;;5.40;5.00;;;;;;;2.45;95.19;101982.81;5050260;28;20285;-77
2023/01/22 11:44:14;;;;;;;5.27;4.87;;;;;;;2.46;94.65;101972.59;5050153;28;20283;-77